sensor_id;sensor_type;location;lat;lon;timestamp;P1;durP1;ratioP1;P2;durP2;ratioP2
76117;SDS011;64851;50.232;20.364;2023-02-03T00:01:19;6.80;;;3.10;;
76117;SDS011;64851;50.232;20.364;2023-02-03T00:04:00;7.60;;;3.20;;
76117;SDS011;64851;50.232;20.364;2023-02-03T00:06:42;3.90;;;2.20;;
76117;SDS011;64851;50.232;20.364;2023-02-03T00:09:23;5.90;;;2.70;;
76117;SDS011;64851;50.232;20.364;2023-02-03T00:12:12;7.40;;;3.10;;
76117;SDS011;64851;50.232;20.364;2023-02-03T00:14:54;6.50;;;2.10;;
76117;SDS011;64851;50.232;20.364;2023-02-03T00:17:49;6.70;;;3.10;;
76117;SDS011;64851;50.232;20.364;2023-02-03T00:20:44;6.10;;;2.40;;
76117;SDS011;64851;50.232;20.364;2023-02-03T00:23:39;4.80;;;2.10;;
76117;SDS011;64851;50.232;20.364;2023-02-03T00:26:15;9.70;;;4.40;;
76117;SDS011;64851;50.232;20.364;2023-02-03T00:29:12;7.80;;;4.00;;
76117;SDS011;64851;50.232;20.364;2023-02-03T00:32:11;4.90;;;2.30;;
76117;SDS011;64851;50.232;20.364;2023-02-03T00:34:47;5.10;;;2.50;;
76117;SDS011;64851;50.232;20.364;2023-02-03T00:37:35;8.90;;;3.10;;
76117;SDS011;64851;50.232;20.364;2023-02-03T00:40:10;5.90;;;1.80;;
76117;SDS011;64851;50.232;20.364;2023-02-03T00:43:05;4.90;;;2.00;;
76117;SDS011;64851;50.232;20.364;2023-02-03T00:46:00;7.10;;;2.10;;
76117;SDS011;64851;50.232;20.364;2023-02-03T00:48:36;5.40;;;1.90;;
76117;SDS011;64851;50.232;20.364;2023-02-03T00:51:24;5.20;;;2.50;;
76117;SDS011;64851;50.232;20.364;2023-02-03T00:53:59;9.50;;;3.40;;
76117;SDS011;64851;50.232;20.364;2023-02-03T00:56:47;29.20;;;9.30;;
76117;SDS011;64851;50.232;20.364;2023-02-03T00:59:30;21.00;;;6.50;;
76117;SDS011;64851;50.232;20.364;2023-02-03T01:02:12;9.80;;;2.40;;
76117;SDS011;64851;50.232;20.364;2023-02-03T01:04:54;11.00;;;3.00;;
76117;SDS011;64851;50.232;20.364;2023-02-03T01:07:36;7.90;;;3.00;;
76117;SDS011;64851;50.232;20.364;2023-02-03T01:10:18;8.30;;;2.60;;
76117;SDS011;64851;50.232;20.364;2023-02-03T01:13:00;3.70;;;1.60;;
76117;SDS011;64851;50.232;20.364;2023-02-03T01:15:50;5.90;;;2.40;;
76117;SDS011;64851;50.232;20.364;2023-02-03T01:18:45;8.80;;;2.80;;
76117;SDS011;64851;50.232;20.364;2023-02-03T01:21:22;10.50;;;3.20;;
76117;SDS011;64851;50.232;20.364;2023-02-03T01:24:11;6.40;;;2.60;;
76117;SDS011;64851;50.232;20.364;2023-02-03T01:26:48;4.80;;;1.90;;
76117;SDS011;64851;50.232;20.364;2023-02-03T01:29:36;5.50;;;1.90;;
76117;SDS011;64851;50.232;20.364;2023-02-03T01:32:32;8.60;;;2.40;;
76117;SDS011;64851;50.232;20.364;2023-02-03T01:35:27;6.30;;;2.00;;
76117;SDS011;64851;50.232;20.364;2023-02-03T01:38:22;4.20;;;1.60;;
76117;SDS011;64851;50.232;20.364;2023-02-03T01:40:57;2.60;;;1.00;;
76117;SDS011;64851;50.232;20.364;2023-02-03T01:43:46;5.20;;;1.60;;
76117;SDS011;64851;50.232;20.364;2023-02-03T01:46:25;3.40;;;1.40;;
76117;SDS011;64851;50.232;20.364;2023-02-03T01:49:24;3.30;;;1.10;;
76117;SDS011;64851;50.232;20.364;2023-02-03T01:52:22;4.10;;;1.10;;
76117;SDS011;64851;50.232;20.364;2023-02-03T01:54:57;3.30;;;1.10;;
76117;SDS011;64851;50.232;20.364;2023-02-03T01:57:51;2.60;;;1.00;;
76117;SDS011;64851;50.232;20.364;2023-02-03T02:00:29;3.30;;;1.00;;
76117;SDS011;64851;50.232;20.364;2023-02-03T02:03:17;2.00;;;0.70;;
76117;SDS011;64851;50.232;20.364;2023-02-03T02:05:59;3.30;;;1.10;;
76117;SDS011;64851;50.232;20.364;2023-02-03T02:08:56;4.00;;;1.10;;
76117;SDS011;64851;50.232;20.364;2023-02-03T02:11:52;5.00;;;1.30;;
76117;SDS011;64851;50.232;20.364;2023-02-03T02:14:27;4.10;;;1.50;;
76117;SDS011;64851;50.232;20.364;2023-02-03T02:17:29;3.90;;;1.30;;
76117;SDS011;64851;50.232;20.364;2023-02-03T02:20:58;4.10;;;0.90;;
76117;SDS011;64851;50.232;20.364;2023-02-03T02:23:58;2.50;;;0.90;;
76117;SDS011;64851;50.232;20.364;2023-02-03T02:37:13;3.80;;;0.90;;
76117;SDS011;64851;50.232;20.364;2023-02-03T02:40:09;1.80;;;0.60;;
76117;SDS011;64851;50.232;20.364;2023-02-03T02:46:10;3.00;;;0.70;;
76117;SDS011;64851;50.232;20.364;2023-02-03T02:52:14;2.10;;;0.50;;
76117;SDS011;64851;50.232;20.364;2023-02-03T02:54:57;2.00;;;0.90;;
76117;SDS011;64851;50.232;20.364;2023-02-03T02:57:42;2.60;;;1.50;;
76117;SDS011;64851;50.232;20.364;2023-02-03T03:00:24;3.60;;;1.80;;
76117;SDS011;64851;50.232;20.364;2023-02-03T03:03:10;3.20;;;1.10;;
76117;SDS011;64851;50.232;20.364;2023-02-03T03:05:53;2.30;;;1.20;;
76117;SDS011;64851;50.232;20.364;2023-02-03T03:08:41;4.00;;;1.60;;
76117;SDS011;64851;50.232;20.364;2023-02-03T03:11:23;3.00;;;0.80;;
76117;SDS011;64851;50.232;20.364;2023-02-03T03:14:06;2.30;;;0.80;;
76117;SDS011;64851;50.232;20.364;2023-02-03T03:16:51;2.00;;;0.60;;
76117;SDS011;64851;50.232;20.364;2023-02-03T03:19:36;1.40;;;0.60;;
76117;SDS011;64851;50.232;20.364;2023-02-03T03:22:28;2.10;;;0.50;;
76117;SDS011;64851;50.232;20.364;2023-02-03T03:25:10;2.00;;;0.70;;
76117;SDS011;64851;50.232;20.364;2023-02-03T03:28:02;1.80;;;0.40;;
76117;SDS011;64851;50.232;20.364;2023-02-03T03:30:41;1.90;;;0.80;;
76117;SDS011;64851;50.232;20.364;2023-02-03T03:33:31;2.80;;;0.50;;
76117;SDS011;64851;50.232;20.364;2023-02-03T03:36:17;2.40;;;0.70;;
76117;SDS011;64851;50.232;20.364;2023-02-03T03:39:08;3.80;;;0.90;;
76117;SDS011;64851;50.232;20.364;2023-02-03T03:41:59;2.40;;;0.90;;
76117;SDS011;64851;50.232;20.364;2023-02-03T03:47:35;3.70;;;1.10;;
76117;SDS011;64851;50.232;20.364;2023-02-03T03:50:31;2.60;;;1.00;;
76117;SDS011;64851;50.232;20.364;2023-02-03T03:53:09;3.80;;;1.10;;
76117;SDS011;64851;50.232;20.364;2023-02-03T03:55:57;2.50;;;1.30;;
76117;SDS011;64851;50.232;20.364;2023-02-03T03:58:41;2.70;;;1.50;;
76117;SDS011;64851;50.232;20.364;2023-02-03T04:01:24;3.60;;;1.50;;
76117;SDS011;64851;50.232;20.364;2023-02-03T04:04:06;5.50;;;2.40;;
76117;SDS011;64851;50.232;20.364;2023-02-03T04:06:49;4.30;;;2.70;;
76117;SDS011;64851;50.232;20.364;2023-02-03T04:09:34;6.50;;;2.20;;
76117;SDS011;64851;50.232;20.364;2023-02-03T04:12:22;5.70;;;1.90;;
76117;SDS011;64851;50.232;20.364;2023-02-03T04:15:03;3.90;;;1.80;;
76117;SDS011;64851;50.232;20.364;2023-02-03T04:17:51;6.90;;;2.30;;
76117;SDS011;64851;50.232;20.364;2023-02-03T04:20:28;6.10;;;2.40;;
76117;SDS011;64851;50.232;20.364;2023-02-03T04:23:17;6.70;;;2.50;;
76117;SDS011;64851;50.232;20.364;2023-02-03T04:25:59;6.10;;;2.20;;
76117;SDS011;64851;50.232;20.364;2023-02-03T04:28:40;5.70;;;2.80;;
76117;SDS011;64851;50.232;20.364;2023-02-03T04:31:21;5.90;;;2.50;;
76117;SDS011;64851;50.232;20.364;2023-02-03T04:34:09;7.90;;;3.40;;
76117;SDS011;64851;50.232;20.364;2023-02-03T04:36:44;7.20;;;2.80;;
76117;SDS011;64851;50.232;20.364;2023-02-03T04:39:38;9.50;;;5.10;;
76117;SDS011;64851;50.232;20.364;2023-02-03T04:42:35;7.10;;;3.10;;
76117;SDS011;64851;50.232;20.364;2023-02-03T04:45:11;10.10;;;4.90;;
76117;SDS011;64851;50.232;20.364;2023-02-03T04:48:06;7.80;;;3.70;;
76117;SDS011;64851;50.232;20.364;2023-02-03T04:51:02;8.00;;;3.60;;
76117;SDS011;64851;50.232;20.364;2023-02-03T04:53:37;15.40;;;4.70;;
76117;SDS011;64851;50.232;20.364;2023-02-03T04:56:31;8.10;;;3.60;;
76117;SDS011;64851;50.232;20.364;2023-02-03T04:59:06;7.50;;;3.10;;
76117;SDS011;64851;50.232;20.364;2023-02-03T05:01:54;8.30;;;2.90;;
76117;SDS011;64851;50.232;20.364;2023-02-03T05:04:29;7.90;;;2.90;;
76117;SDS011;64851;50.232;20.364;2023-02-03T05:07:18;9.30;;;3.50;;
76117;SDS011;64851;50.232;20.364;2023-02-03T05:09:53;9.50;;;3.50;;
76117;SDS011;64851;50.232;20.364;2023-02-03T05:12:47;8.00;;;2.60;;
76117;SDS011;64851;50.232;20.364;2023-02-03T05:15:42;8.70;;;3.70;;
76117;SDS011;64851;50.232;20.364;2023-02-03T05:18:37;9.00;;;4.00;;
76117;SDS011;64851;50.232;20.364;2023-02-03T05:21:32;10.30;;;3.20;;
76117;SDS011;64851;50.232;20.364;2023-02-03T05:24:27;10.10;;;4.30;;
76117;SDS011;64851;50.232;20.364;2023-02-03T05:27:02;7.40;;;3.40;;
76117;SDS011;64851;50.232;20.364;2023-02-03T05:29:50;14.20;;;4.40;;
76117;SDS011;64851;50.232;20.364;2023-02-03T05:32:25;11.20;;;3.90;;
76117;SDS011;64851;50.232;20.364;2023-02-03T05:35:20;14.50;;;4.80;;
76117;SDS011;64851;50.232;20.364;2023-02-03T05:38:15;16.80;;;5.10;;
76117;SDS011;64851;50.232;20.364;2023-02-03T05:40:50;9.90;;;4.50;;
76117;SDS011;64851;50.232;20.364;2023-02-03T05:44:03;8.30;;;4.70;;
76117;SDS011;64851;50.232;20.364;2023-02-03T05:46:58;14.50;;;6.20;;
76117;SDS011;64851;50.232;20.364;2023-02-03T05:49:33;11.20;;;4.60;;
76117;SDS011;64851;50.232;20.364;2023-02-03T05:52:28;9.70;;;3.90;;
76117;SDS011;64851;50.232;20.364;2023-02-03T05:55:23;7.40;;;3.60;;
76117;SDS011;64851;50.232;20.364;2023-02-03T05:57:58;9.80;;;3.60;;
76117;SDS011;64851;50.232;20.364;2023-02-03T06:00:46;7.80;;;3.40;;
76117;SDS011;64851;50.232;20.364;2023-02-03T06:03:21;6.40;;;3.10;;
76117;SDS011;64851;50.232;20.364;2023-02-03T06:06:09;7.00;;;3.30;;
76117;SDS011;64851;50.232;20.364;2023-02-03T06:08:50;8.90;;;3.30;;
76117;SDS011;64851;50.232;20.364;2023-02-03T06:11:31;6.60;;;3.10;;
76117;SDS011;64851;50.232;20.364;2023-02-03T06:14:13;8.00;;;3.60;;
76117;SDS011;64851;50.232;20.364;2023-02-03T06:16:54;6.70;;;3.40;;
76117;SDS011;64851;50.232;20.364;2023-02-03T06:19:35;6.40;;;2.50;;
76117;SDS011;64851;50.232;20.364;2023-02-03T06:22:23;6.70;;;3.10;;
76117;SDS011;64851;50.232;20.364;2023-02-03T06:24:57;13.20;;;4.70;;
76117;SDS011;64851;50.232;20.364;2023-02-03T06:27:46;7.10;;;2.90;;
76117;SDS011;64851;50.232;20.364;2023-02-03T06:30:20;10.80;;;4.30;;
76117;SDS011;64851;50.232;20.364;2023-02-03T06:33:08;12.40;;;5.10;;
76117;SDS011;64851;50.232;20.364;2023-02-03T06:35:42;12.10;;;5.30;;
76117;SDS011;64851;50.232;20.364;2023-02-03T06:38:30;8.70;;;3.90;;
76117;SDS011;64851;50.232;20.364;2023-02-03T06:41:05;9.20;;;4.20;;
76117;SDS011;64851;50.232;20.364;2023-02-03T06:43:52;8.50;;;3.90;;
76117;SDS011;64851;50.232;20.364;2023-02-03T06:46:33;8.20;;;2.60;;
76117;SDS011;64851;50.232;20.364;2023-02-03T06:49:14;7.30;;;3.60;;
76117;SDS011;64851;50.232;20.364;2023-02-03T06:51:56;8.60;;;4.50;;
76117;SDS011;64851;50.232;20.364;2023-02-03T06:54:38;9.10;;;4.80;;
76117;SDS011;64851;50.232;20.364;2023-02-03T06:57:19;7.10;;;3.90;;
76117;SDS011;64851;50.232;20.364;2023-02-03T07:02:41;7.90;;;3.10;;
76117;SDS011;64851;50.232;20.364;2023-02-03T07:05:23;7.50;;;3.20;;
76117;SDS011;64851;50.232;20.364;2023-02-03T07:08:04;8.50;;;3.50;;
76117;SDS011;64851;50.232;20.364;2023-02-03T07:10:45;11.00;;;4.60;;
76117;SDS011;64851;50.232;20.364;2023-02-03T07:13:27;9.00;;;4.40;;
76117;SDS011;64851;50.232;20.364;2023-02-03T07:16:07;9.00;;;4.20;;
76117;SDS011;64851;50.232;20.364;2023-02-03T07:18:55;9.40;;;4.40;;
76117;SDS011;64851;50.232;20.364;2023-02-03T07:21:50;9.60;;;4.50;;
76117;SDS011;64851;50.232;20.364;2023-02-03T07:24:25;7.70;;;3.80;;
76117;SDS011;64851;50.232;20.364;2023-02-03T07:27:13;10.80;;;4.50;;
76117;SDS011;64851;50.232;20.364;2023-02-03T07:29:48;10.00;;;5.10;;
76117;SDS011;64851;50.232;20.364;2023-02-03T07:32:47;10.30;;;5.00;;
76117;SDS011;64851;50.232;20.364;2023-02-03T07:35:42;8.60;;;4.40;;
76117;SDS011;64851;50.232;20.364;2023-02-03T07:38:17;9.10;;;4.80;;
76117;SDS011;64851;50.232;20.364;2023-02-03T07:41:05;10.40;;;5.20;;
76117;SDS011;64851;50.232;20.364;2023-02-03T07:43:40;7.20;;;3.30;;
76117;SDS011;64851;50.232;20.364;2023-02-03T07:46:27;10.60;;;4.80;;
76117;SDS011;64851;50.232;20.364;2023-02-03T07:49:02;9.80;;;4.80;;
76117;SDS011;64851;50.232;20.364;2023-02-03T07:51:50;11.30;;;5.40;;
76117;SDS011;64851;50.232;20.364;2023-02-03T07:54:25;10.80;;;5.00;;
76117;SDS011;64851;50.232;20.364;2023-02-03T07:57:19;10.50;;;5.50;;
76117;SDS011;64851;50.232;20.364;2023-02-03T08:00:14;9.30;;;4.60;;
76117;SDS011;64851;50.232;20.364;2023-02-03T08:02:50;10.40;;;5.00;;
76117;SDS011;64851;50.232;20.364;2023-02-03T08:05:38;8.60;;;4.60;;
76117;SDS011;64851;50.232;20.364;2023-02-03T08:08:13;11.00;;;4.80;;
76117;SDS011;64851;50.232;20.364;2023-02-03T08:11:01;11.70;;;5.70;;
76117;SDS011;64851;50.232;20.364;2023-02-03T08:13:37;10.10;;;4.20;;
76117;SDS011;64851;50.232;20.364;2023-02-03T08:16:32;14.70;;;5.70;;
76117;SDS011;64851;50.232;20.364;2023-02-03T08:19:27;10.20;;;5.00;;
76117;SDS011;64851;50.232;20.364;2023-02-03T08:22:02;9.40;;;4.50;;
76117;SDS011;64851;50.232;20.364;2023-02-03T08:27:34;11.10;;;4.40;;
76117;SDS011;64851;50.232;20.364;2023-02-03T08:30:22;8.00;;;4.10;;
76117;SDS011;64851;50.232;20.364;2023-02-03T08:32:58;7.40;;;3.30;;
76117;SDS011;64851;50.232;20.364;2023-02-03T08:35:47;6.90;;;3.30;;
76117;SDS011;64851;50.232;20.364;2023-02-03T08:38:22;7.20;;;3.00;;
76117;SDS011;64851;50.232;20.364;2023-02-03T08:41:11;10.50;;;4.90;;
76117;SDS011;64851;50.232;20.364;2023-02-03T08:43:47;11.80;;;5.70;;
76117;SDS011;64851;50.232;20.364;2023-02-03T08:46:42;11.80;;;5.50;;
76117;SDS011;64851;50.232;20.364;2023-02-03T08:49:17;12.30;;;4.50;;
76117;SDS011;64851;50.232;20.364;2023-02-03T08:52:06;9.60;;;5.00;;
76117;SDS011;64851;50.232;20.364;2023-02-03T08:54:42;11.00;;;5.20;;
76117;SDS011;64851;50.232;20.364;2023-02-03T08:57:31;11.00;;;4.60;;
76117;SDS011;64851;50.232;20.364;2023-02-03T09:00:07;11.80;;;5.70;;
76117;SDS011;64851;50.232;20.364;2023-02-03T09:02:56;8.20;;;4.00;;
76117;SDS011;64851;50.232;20.364;2023-02-03T09:05:37;10.10;;;5.30;;
76117;SDS011;64851;50.232;20.364;2023-02-03T09:08:19;10.10;;;4.70;;
76117;SDS011;64851;50.232;20.364;2023-02-03T09:11:00;11.30;;;5.40;;
76117;SDS011;64851;50.232;20.364;2023-02-03T09:13:48;9.60;;;4.10;;
76117;SDS011;64851;50.232;20.364;2023-02-03T09:16:24;9.10;;;4.70;;
76117;SDS011;64851;50.232;20.364;2023-02-03T09:19:19;7.60;;;4.10;;
76117;SDS011;64851;50.232;20.364;2023-02-03T09:22:16;9.10;;;4.10;;
76117;SDS011;64851;50.232;20.364;2023-02-03T09:25:11;8.10;;;3.60;;
76117;SDS011;64851;50.232;20.364;2023-02-03T09:27:47;13.60;;;4.30;;
76117;SDS011;64851;50.232;20.364;2023-02-03T09:30:42;9.70;;;4.80;;
76117;SDS011;64851;50.232;20.364;2023-02-03T09:33:37;12.40;;;5.50;;
76117;SDS011;64851;50.232;20.364;2023-02-03T09:36:13;13.60;;;5.30;;
76117;SDS011;64851;50.232;20.364;2023-02-03T09:39:01;12.10;;;4.90;;
76117;SDS011;64851;50.232;20.364;2023-02-03T09:45:13;13.40;;;4.70;;
76117;SDS011;64851;50.232;20.364;2023-02-03T09:48:03;9.20;;;3.60;;
76117;SDS011;64851;50.232;20.364;2023-02-03T09:51:02;13.70;;;4.90;;
76117;SDS011;64851;50.232;20.364;2023-02-03T09:53:59;9.80;;;4.20;;
76117;SDS011;64851;50.232;20.364;2023-02-03T09:59:32;10.20;;;4.30;;
76117;SDS011;64851;50.232;20.364;2023-02-03T10:17:40;8.40;;;3.20;;
76117;SDS011;64851;50.232;20.364;2023-02-03T10:20:32;7.60;;;3.70;;
76117;SDS011;64851;50.232;20.364;2023-02-03T10:23:23;7.80;;;4.10;;
76117;SDS011;64851;50.232;20.364;2023-02-03T10:26:03;8.10;;;3.80;;
76117;SDS011;64851;50.232;20.364;2023-02-03T10:29:04;10.30;;;4.80;;
76117;SDS011;64851;50.232;20.364;2023-02-03T10:31:42;11.40;;;3.50;;
76117;SDS011;64851;50.232;20.364;2023-02-03T10:34:30;8.50;;;3.40;;
76117;SDS011;64851;50.232;20.364;2023-02-03T10:40:26;7.20;;;3.50;;
76117;SDS011;64851;50.232;20.364;2023-02-03T10:43:02;6.40;;;3.20;;
76117;SDS011;64851;50.232;20.364;2023-02-03T10:46:08;8.80;;;2.90;;
76117;SDS011;64851;50.232;20.364;2023-02-03T10:48:43;7.80;;;3.80;;
76117;SDS011;64851;50.232;20.364;2023-02-03T10:51:47;7.60;;;3.00;;
76117;SDS011;64851;50.232;20.364;2023-02-03T10:54:26;6.40;;;2.50;;
76117;SDS011;64851;50.232;20.364;2023-02-03T10:57:15;4.50;;;1.90;;
76117;SDS011;64851;50.232;20.364;2023-02-03T10:59:49;4.80;;;2.00;;
76117;SDS011;64851;50.232;20.364;2023-02-03T11:02:38;3.30;;;1.40;;
76117;SDS011;64851;50.232;20.364;2023-02-03T11:05:19;7.50;;;2.90;;
76117;SDS011;64851;50.232;20.364;2023-02-03T11:08:15;5.40;;;2.10;;
76117;SDS011;64851;50.232;20.364;2023-02-03T11:11:19;4.40;;;2.50;;
76117;SDS011;64851;50.232;20.364;2023-02-03T11:16:51;4.90;;;2.10;;
76117;SDS011;64851;50.232;20.364;2023-02-03T11:19:46;4.60;;;1.80;;
76117;SDS011;64851;50.232;20.364;2023-02-03T11:25:24;6.30;;;2.80;;
76117;SDS011;64851;50.232;20.364;2023-02-03T11:28:03;4.30;;;1.40;;
76117;SDS011;64851;50.232;20.364;2023-02-03T11:30:56;5.50;;;1.70;;
76117;SDS011;64851;50.232;20.364;2023-02-03T11:33:39;4.20;;;2.00;;
76117;SDS011;64851;50.232;20.364;2023-02-03T11:36:28;3.90;;;1.40;;
76117;SDS011;64851;50.232;20.364;2023-02-03T11:39:09;5.50;;;1.90;;
76117;SDS011;64851;50.232;20.364;2023-02-03T11:42:00;6.10;;;2.00;;
76117;SDS011;64851;50.232;20.364;2023-02-03T11:44:35;5.00;;;1.20;;
76117;SDS011;64851;50.232;20.364;2023-02-03T11:47:23;5.20;;;2.70;;
76117;SDS011;64851;50.232;20.364;2023-02-03T11:55:34;6.20;;;2.90;;
76117;SDS011;64851;50.232;20.364;2023-02-03T12:01:53;4.10;;;2.10;;
76117;SDS011;64851;50.232;20.364;2023-02-03T12:04:50;8.10;;;2.30;;
76117;SDS011;64851;50.232;20.364;2023-02-03T12:10:27;5.20;;;2.00;;
76117;SDS011;64851;50.232;20.364;2023-02-03T12:13:46;4.60;;;1.90;;
76117;SDS011;64851;50.232;20.364;2023-02-03T12:26:13;5.90;;;2.80;;
76117;SDS011;64851;50.232;20.364;2023-02-03T12:31:49;3.60;;;1.30;;
76117;SDS011;64851;50.232;20.364;2023-02-03T12:34:37;6.10;;;2.00;;
76117;SDS011;64851;50.232;20.364;2023-02-03T12:37:26;4.50;;;1.90;;
76117;SDS011;64851;50.232;20.364;2023-02-03T12:43:02;2.70;;;0.90;;
76117;SDS011;64851;50.232;20.364;2023-02-03T13:00:45;4.20;;;1.60;;
76117;SDS011;64851;50.232;20.364;2023-02-03T13:09:38;3.70;;;1.50;;
76117;SDS011;64851;50.232;20.364;2023-02-03T13:12:42;3.40;;;1.50;;
76117;SDS011;64851;50.232;20.364;2023-02-03T13:15:24;3.70;;;1.70;;
76117;SDS011;64851;50.232;20.364;2023-02-03T13:18:27;4.40;;;1.70;;
76117;SDS011;64851;50.232;20.364;2023-02-03T13:21:25;3.80;;;1.30;;
76117;SDS011;64851;50.232;20.364;2023-02-03T13:24:22;4.00;;;1.20;;
76117;SDS011;64851;50.232;20.364;2023-02-03T13:30:04;3.60;;;1.10;;
76117;SDS011;64851;50.232;20.364;2023-02-03T13:36:27;3.50;;;1.30;;
76117;SDS011;64851;50.232;20.364;2023-02-03T13:39:49;3.50;;;1.30;;
76117;SDS011;64851;50.232;20.364;2023-02-03T13:42:46;4.50;;;1.50;;
76117;SDS011;64851;50.232;20.364;2023-02-03T13:45:41;5.90;;;2.00;;
76117;SDS011;64851;50.232;20.364;2023-02-03T13:48:20;3.30;;;1.80;;
76117;SDS011;64851;50.232;20.364;2023-02-03T13:51:14;4.80;;;1.70;;
76117;SDS011;64851;50.232;20.364;2023-02-03T13:53:52;3.30;;;1.90;;
76117;SDS011;64851;50.232;20.364;2023-02-03T13:56:54;5.50;;;2.40;;
76117;SDS011;64851;50.232;20.364;2023-02-03T14:05:06;4.40;;;1.80;;
76117;SDS011;64851;50.232;20.364;2023-02-03T14:16:56;5.40;;;2.90;;
76117;SDS011;64851;50.232;20.364;2023-02-03T14:19:53;6.60;;;3.40;;
76117;SDS011;64851;50.232;20.364;2023-02-03T14:22:48;5.70;;;2.70;;
76117;SDS011;64851;50.232;20.364;2023-02-03T14:25:23;6.30;;;3.20;;
76117;SDS011;64851;50.232;20.364;2023-02-03T14:28:22;5.10;;;3.20;;
76117;SDS011;64851;50.232;20.364;2023-02-03T14:31:04;6.10;;;2.20;;
76117;SDS011;64851;50.232;20.364;2023-02-03T14:34:02;5.70;;;2.60;;
76117;SDS011;64851;50.232;20.364;2023-02-03T14:36:48;5.90;;;3.30;;
76117;SDS011;64851;50.232;20.364;2023-02-03T14:56:20;6.60;;;2.50;;
76117;SDS011;64851;50.232;20.364;2023-02-03T15:04:34;4.30;;;1.90;;
76117;SDS011;64851;50.232;20.364;2023-02-03T15:07:33;6.80;;;2.90;;
76117;SDS011;64851;50.232;20.364;2023-02-03T15:10:20;7.00;;;2.30;;
76117;SDS011;64851;50.232;20.364;2023-02-03T15:13:26;8.60;;;2.90;;
76117;SDS011;64851;50.232;20.364;2023-02-03T15:16:11;6.80;;;3.20;;
76117;SDS011;64851;50.232;20.364;2023-02-03T15:19:02;5.50;;;2.60;;
76117;SDS011;64851;50.232;20.364;2023-02-03T15:24:35;5.50;;;2.50;;
76117;SDS011;64851;50.232;20.364;2023-02-03T15:27:22;6.50;;;2.90;;
76117;SDS011;64851;50.232;20.364;2023-02-03T15:36:12;5.50;;;2.40;;
76117;SDS011;64851;50.232;20.364;2023-02-03T15:38:57;2.60;;;1.40;;
76117;SDS011;64851;50.232;20.364;2023-02-03T15:41:56;5.70;;;2.20;;
76117;SDS011;64851;50.232;20.364;2023-02-03T15:44:38;4.60;;;2.10;;
76117;SDS011;64851;50.232;20.364;2023-02-03T15:47:33;4.30;;;1.90;;
76117;SDS011;64851;50.232;20.364;2023-02-03T15:53:29;5.80;;;3.30;;
76117;SDS011;64851;50.232;20.364;2023-02-03T15:56:39;6.30;;;2.80;;
76117;SDS011;64851;50.232;20.364;2023-02-03T15:59:28;7.00;;;3.30;;
76117;SDS011;64851;50.232;20.364;2023-02-03T16:02:47;6.80;;;3.70;;
76117;SDS011;64851;50.232;20.364;2023-02-03T16:05:44;6.30;;;2.60;;
76117;SDS011;64851;50.232;20.364;2023-02-03T16:11:31;4.70;;;2.80;;
76117;SDS011;64851;50.232;20.364;2023-02-03T16:14:21;6.60;;;3.30;;
76117;SDS011;64851;50.232;20.364;2023-02-03T16:20:25;7.10;;;3.10;;
76117;SDS011;64851;50.232;20.364;2023-02-03T16:23:13;6.90;;;3.20;;
76117;SDS011;64851;50.232;20.364;2023-02-03T16:26:18;6.40;;;2.50;;
76117;SDS011;64851;50.232;20.364;2023-02-03T16:29:13;6.20;;;3.00;;
76117;SDS011;64851;50.232;20.364;2023-02-03T16:32:15;7.00;;;2.30;;
76117;SDS011;64851;50.232;20.364;2023-02-03T16:35:25;6.30;;;2.70;;
76117;SDS011;64851;50.232;20.364;2023-02-03T16:38:20;6.20;;;2.80;;
76117;SDS011;64851;50.232;20.364;2023-02-03T16:41:33;7.20;;;2.70;;
76117;SDS011;64851;50.232;20.364;2023-02-03T16:44:27;5.30;;;2.90;;
76117;SDS011;64851;50.232;20.364;2023-02-03T16:47:36;6.20;;;2.60;;
76117;SDS011;64851;50.232;20.364;2023-02-03T16:50:31;4.70;;;2.50;;
76117;SDS011;64851;50.232;20.364;2023-02-03T16:53:43;4.90;;;2.50;;
76117;SDS011;64851;50.232;20.364;2023-02-03T16:56:39;5.20;;;2.70;;
76117;SDS011;64851;50.232;20.364;2023-02-03T16:59:15;8.10;;;2.10;;
76117;SDS011;64851;50.232;20.364;2023-02-03T17:02:04;7.90;;;3.20;;
76117;SDS011;64851;50.232;20.364;2023-02-03T17:04:39;10.00;;;3.30;;
76117;SDS011;64851;50.232;20.364;2023-02-03T17:07:35;11.50;;;4.00;;
76117;SDS011;64851;50.232;20.364;2023-02-03T17:10:35;9.40;;;3.70;;
76117;SDS011;64851;50.232;20.364;2023-02-03T17:13:11;8.40;;;4.30;;
76117;SDS011;64851;50.232;20.364;2023-02-03T17:16:09;6.90;;;3.20;;
76117;SDS011;64851;50.232;20.364;2023-02-03T17:18:49;8.20;;;3.90;;
76117;SDS011;64851;50.232;20.364;2023-02-03T17:21:47;7.40;;;3.70;;
76117;SDS011;64851;50.232;20.364;2023-02-03T17:24:23;7.20;;;3.60;;
76117;SDS011;64851;50.232;20.364;2023-02-03T17:27:18;11.40;;;5.30;;
76117;SDS011;64851;50.232;20.364;2023-02-03T17:29:53;7.00;;;4.00;;
76117;SDS011;64851;50.232;20.364;2023-02-03T17:32:48;9.90;;;5.10;;
76117;SDS011;64851;50.232;20.364;2023-02-03T17:35:22;10.90;;;4.90;;
76117;SDS011;64851;50.232;20.364;2023-02-03T17:38:12;8.20;;;4.00;;
76117;SDS011;64851;50.232;20.364;2023-02-03T17:40:54;8.90;;;3.70;;
76117;SDS011;64851;50.232;20.364;2023-02-03T17:43:59;7.30;;;4.00;;
76117;SDS011;64851;50.232;20.364;2023-02-03T17:46:57;11.30;;;4.60;;
76117;SDS011;64851;50.232;20.364;2023-02-03T17:49:59;13.80;;;5.20;;
76117;SDS011;64851;50.232;20.364;2023-02-03T17:53:00;10.30;;;5.20;;
76117;SDS011;64851;50.232;20.364;2023-02-03T17:55:48;16.20;;;6.80;;
76117;SDS011;64851;50.232;20.364;2023-02-03T17:58:22;11.20;;;5.30;;
76117;SDS011;64851;50.232;20.364;2023-02-03T18:01:14;10.90;;;4.80;;
76117;SDS011;64851;50.232;20.364;2023-02-03T18:03:53;10.90;;;5.00;;
76117;SDS011;64851;50.232;20.364;2023-02-03T18:06:42;8.80;;;4.70;;
76117;SDS011;64851;50.232;20.364;2023-02-03T18:09:17;13.80;;;6.10;;
76117;SDS011;64851;50.232;20.364;2023-02-03T18:12:05;12.70;;;5.50;;
76117;SDS011;64851;50.232;20.364;2023-02-03T18:14:42;9.40;;;4.80;;
76117;SDS011;64851;50.232;20.364;2023-02-03T18:17:38;10.50;;;4.30;;
76117;SDS011;64851;50.232;20.364;2023-02-03T18:20:33;10.90;;;4.30;;
76117;SDS011;64851;50.232;20.364;2023-02-03T18:23:32;8.50;;;4.10;;
76117;SDS011;64851;50.232;20.364;2023-02-03T18:26:08;10.20;;;4.10;;
76117;SDS011;64851;50.232;20.364;2023-02-03T18:28:58;11.30;;;4.30;;
76117;SDS011;64851;50.232;20.364;2023-02-03T18:31:35;12.70;;;4.90;;
76117;SDS011;64851;50.232;20.364;2023-02-03T18:34:28;8.20;;;3.40;;
76117;SDS011;64851;50.232;20.364;2023-02-03T18:37:03;10.10;;;3.80;;
76117;SDS011;64851;50.232;20.364;2023-02-03T18:39:51;13.50;;;5.00;;
76117;SDS011;64851;50.232;20.364;2023-02-03T18:42:26;9.70;;;3.10;;
76117;SDS011;64851;50.232;20.364;2023-02-03T18:45:21;9.10;;;4.20;;
76117;SDS011;64851;50.232;20.364;2023-02-03T18:48:17;12.50;;;7.10;;
76117;SDS011;64851;50.232;20.364;2023-02-03T18:51:13;10.40;;;5.20;;
76117;SDS011;64851;50.232;20.364;2023-02-03T18:53:54;11.30;;;5.20;;
76117;SDS011;64851;50.232;20.364;2023-02-03T18:59:26;12.50;;;6.00;;
76117;SDS011;64851;50.232;20.364;2023-02-03T19:02:22;14.40;;;6.50;;
76117;SDS011;64851;50.232;20.364;2023-02-03T19:04:58;17.00;;;7.40;;
76117;SDS011;64851;50.232;20.364;2023-02-03T19:07:47;14.50;;;7.30;;
76117;SDS011;64851;50.232;20.364;2023-02-03T19:10:28;14.60;;;6.60;;
76117;SDS011;64851;50.232;20.364;2023-02-03T19:13:16;12.70;;;6.20;;
76117;SDS011;64851;50.232;20.364;2023-02-03T19:15:52;14.30;;;6.40;;
76117;SDS011;64851;50.232;20.364;2023-02-03T19:18:42;11.70;;;5.70;;